Killeen — WDF3110 — position and weather

sailwx.info

Track history (hours):
 
Tides and Currents Weather Stations Pressure Air Temp Water Temp Dewpoint Dewpoint Depression Visibility Wind Speed Wind Dir Waves Ship Positions

Killeen

Owner: C Ray Inc, San Diego, CA. More information available from US FCC via Universal Licensing System and Coast Guard Vessel Documentation Center.

Last reported at 2016-Jun-28 20:33 UTC. Time now 2016-Jun-28 22:28 UTC.
Position N 32°42' W 117°10'.

Length 18 m; draft 2.5 m.

Type: Towing. MMSI: 367435980.

Date/timePositionNaut miles runAvg speedWind from/ knotsBaromVisibWave heightAir tempDewpointWater temp
2016-Jun-28 20:33N 32°42' W 117°10'1 1.3
2016-Jun-28 19:33N 32°44' W 117°11'0 0.0
2016-Jun-28 18:33N 32°44' W 117°11'3 0.1
2016-Jun-27 20:28N 32°42' W 117°09'3 3.1
2016-Jun-27 19:33N 32°44' W 117°11'2 2.2
2016-Jun-27 18:33N 32°42' W 117°10'3 3.1
2016-Jun-27 17:32N 32°39' W 117°07'5 5.4
2016-Jun-27 16:33N 32°44' W 117°11'0 0.2
2016-Jun-27 15:33N 32°43' W 117°11'3 2.7
2016-Jun-27 14:33N 32°42' W 117°09'  
2016-Jun-23 18:20N 32°42' W 117°09'2 2.4
2016-Jun-23 17:33N 32°43' W 117°11'1 1.4
2016-Jun-23 16:33N 32°42' W 117°09'2 2.3
2016-Jun-23 15:33N 32°43' W 117°11'3 2.7
2016-Jun-23 14:33N 32°42' W 117°09'0 0.0
2016-Jun-22 15:34N 32°42' W 117°09'0 0.0
2016-Jun-21 00:33N 32°42' W 117°09'3 2.7
2016-Jun-20 23:34N 32°43' W 117°11'3 2.7
2016-Jun-20 22:33N 32°42' W 117°09'3 2.5
2016-Jun-20 21:33N 32°43' W 117°11'3 2.5
2016-Jun-20 20:33N 32°42' W 117°09'  
Track history (hours):
 
Tides and Currents Weather Stations Pressure Air Temp Water Temp Dewpoint Dewpoint Depression Visibility Wind Speed Wind Dir Waves Ship Positions

Killeen

Owner: C Ray Inc, San Diego, CA. More information available from US FCC via Universal Licensing System and Coast Guard Vessel Documentation Center.

Last reported at 2016-Jun-28 20:33 UTC. Time now 2016-Jun-28 22:28 UTC.
Position N 32°42' W 117°10'.

Length 18 m; draft 2.5 m.

Type: Towing. MMSI: 367435980.

Date/timePositionNaut miles runAvg speedWind from/ knotsBaromVisibWave heightAir tempDewpointWater temp
2016-Jun-28 20:33N 32°42' W 117°10'1 1.3
2016-Jun-28 19:33N 32°44' W 117°11'0 0.0
2016-Jun-28 18:33N 32°44' W 117°11'3 0.1
2016-Jun-27 20:28N 32°42' W 117°09'3 3.1
2016-Jun-27 19:33N 32°44' W 117°11'2 2.2
2016-Jun-27 18:33N 32°42' W 117°10'3 3.1
2016-Jun-27 17:32N 32°39' W 117°07'5 5.4
2016-Jun-27 16:33N 32°44' W 117°11'0 0.2
2016-Jun-27 15:33N 32°43' W 117°11'3 2.7
2016-Jun-27 14:33N 32°42' W 117°09'  
2016-Jun-23 18:20N 32°42' W 117°09'2 2.4
2016-Jun-23 17:33N 32°43' W 117°11'1 1.4
2016-Jun-23 16:33N 32°42' W 117°09'2 2.3
2016-Jun-23 15:33N 32°43' W 117°11'3 2.7
2016-Jun-23 14:33N 32°42' W 117°09'0 0.0
2016-Jun-22 15:34N 32°42' W 117°09'0 0.0
2016-Jun-21 00:33N 32°42' W 117°09'3 2.7
2016-Jun-20 23:34N 32°43' W 117°11'3 2.7
2016-Jun-20 22:33N 32°42' W 117°09'3 2.5
2016-Jun-20 21:33N 32°43' W 117°11'3 2.5
2016-Jun-20 20:33N 32°42' W 117°09'  

Dump ship's entire track history